sensor_id;sensor_type;location;lat;lon;timestamp;P1;durP1;ratioP1;P2;durP2;ratioP2
42832;SDS011;64089;51.478;5.692;2022-12-05T00:01:16;52.92;;;18.83;;
42832;SDS011;64089;51.478;5.692;2022-12-05T00:03:50;44.42;;;18.30;;
42832;SDS011;64089;51.478;5.692;2022-12-05T00:06:17;49.67;;;17.02;;
42832;SDS011;64089;51.478;5.692;2022-12-05T00:08:44;52.67;;;18.20;;
42832;SDS011;64089;51.478;5.692;2022-12-05T00:11:13;49.58;;;17.38;;
42832;SDS011;64089;51.478;5.692;2022-12-05T00:13:41;50.33;;;17.87;;
42832;SDS011;64089;51.478;5.692;2022-12-05T00:16:08;51.28;;;18.38;;
42832;SDS011;64089;51.478;5.692;2022-12-05T00:18:36;52.65;;;18.45;;
42832;SDS011;64089;51.478;5.692;2022-12-05T00:21:02;49.38;;;19.20;;
42832;SDS011;64089;51.478;5.692;2022-12-05T00:23:28;42.97;;;17.77;;
42832;SDS011;64089;51.478;5.692;2022-12-05T00:25:54;54.65;;;18.00;;
42832;SDS011;64089;51.478;5.692;2022-12-05T00:28:19;52.03;;;16.75;;
42832;SDS011;64089;51.478;5.692;2022-12-05T00:30:45;49.45;;;18.55;;
42832;SDS011;64089;51.478;5.692;2022-12-05T00:33:10;54.75;;;19.65;;
42832;SDS011;64089;51.478;5.692;2022-12-05T00:35:36;46.55;;;17.63;;
42832;SDS011;64089;51.478;5.692;2022-12-05T00:38:01;51.08;;;18.63;;
42832;SDS011;64089;51.478;5.692;2022-12-05T00:40:27;51.53;;;18.13;;
42832;SDS011;64089;51.478;5.692;2022-12-05T00:42:53;47.50;;;18.35;;
42832;SDS011;64089;51.478;5.692;2022-12-05T00:45:18;54.20;;;18.27;;
42832;SDS011;64089;51.478;5.692;2022-12-05T00:47:44;54.33;;;17.63;;
42832;SDS011;64089;51.478;5.692;2022-12-05T00:50:09;60.65;;;18.67;;
42832;SDS011;64089;51.478;5.692;2022-12-05T00:52:35;40.72;;;17.95;;
42832;SDS011;64089;51.478;5.692;2022-12-05T00:55:01;54.05;;;18.77;;
42832;SDS011;64089;51.478;5.692;2022-12-05T00:57:26;46.72;;;17.98;;
42832;SDS011;64089;51.478;5.692;2022-12-05T00:59:52;58.38;;;20.77;;
42832;SDS011;64089;51.478;5.692;2022-12-05T01:02:17;45.65;;;18.75;;
42832;SDS011;64089;51.478;5.692;2022-12-05T01:04:43;46.63;;;20.05;;
42832;SDS011;64089;51.478;5.692;2022-12-05T01:07:08;55.88;;;18.83;;
42832;SDS011;64089;51.478;5.692;2022-12-05T01:09:34;52.33;;;20.55;;
42832;SDS011;64089;51.478;5.692;2022-12-05T01:12:00;34.58;;;16.95;;
42832;SDS011;64089;51.478;5.692;2022-12-05T01:14:25;48.13;;;19.63;;
42832;SDS011;64089;51.478;5.692;2022-12-05T01:16:52;49.13;;;18.88;;
42832;SDS011;64089;51.478;5.692;2022-12-05T01:19:23;47.53;;;16.23;;
42832;SDS011;64089;51.478;5.692;2022-12-05T01:21:51;53.70;;;18.88;;
42832;SDS011;64089;51.478;5.692;2022-12-05T01:24:18;50.63;;;19.80;;
42832;SDS011;64089;51.478;5.692;2022-12-05T01:26:44;51.50;;;20.90;;
42832;SDS011;64089;51.478;5.692;2022-12-05T01:29:11;53.28;;;19.92;;
42832;SDS011;64089;51.478;5.692;2022-12-05T01:31:38;53.63;;;18.63;;
42832;SDS011;64089;51.478;5.692;2022-12-05T01:34:05;56.00;;;20.25;;
42832;SDS011;64089;51.478;5.692;2022-12-05T01:36:33;50.88;;;20.27;;
42832;SDS011;64089;51.478;5.692;2022-12-05T01:39:00;51.60;;;18.30;;
42832;SDS011;64089;51.478;5.692;2022-12-05T01:41:27;51.42;;;20.10;;
42832;SDS011;64089;51.478;5.692;2022-12-05T01:46:25;51.85;;;18.75;;
42832;SDS011;64089;51.478;5.692;2022-12-05T01:48:54;55.30;;;19.15;;
42832;SDS011;64089;51.478;5.692;2022-12-05T01:51:28;46.95;;;18.98;;
42832;SDS011;64089;51.478;5.692;2022-12-05T01:53:56;49.88;;;19.63;;
42832;SDS011;64089;51.478;5.692;2022-12-05T01:56:22;52.00;;;18.52;;
42832;SDS011;64089;51.478;5.692;2022-12-05T01:58:48;48.15;;;19.17;;
42832;SDS011;64089;51.478;5.692;2022-12-05T02:01:15;69.65;;;21.23;;
42832;SDS011;64089;51.478;5.692;2022-12-05T02:03:42;49.30;;;19.98;;
42832;SDS011;64089;51.478;5.692;2022-12-05T02:06:10;49.90;;;20.58;;
42832;SDS011;64089;51.478;5.692;2022-12-05T02:08:37;58.15;;;19.05;;
42832;SDS011;64089;51.478;5.692;2022-12-05T02:11:04;52.92;;;19.92;;
42832;SDS011;64089;51.478;5.692;2022-12-05T02:27:12;53.85;;;20.75;;
42832;SDS011;64089;51.478;5.692;2022-12-05T02:32:33;54.47;;;20.80;;
42832;SDS011;64089;51.478;5.692;2022-12-05T02:40:13;41.97;;;18.40;;
42832;SDS011;64089;51.478;5.692;2022-12-05T02:45:19;58.15;;;18.85;;
42832;SDS011;64089;51.478;5.692;2022-12-05T02:47:49;49.83;;;18.90;;
42832;SDS011;64089;51.478;5.692;2022-12-05T02:50:18;56.33;;;19.73;;
42832;SDS011;64089;51.478;5.692;2022-12-05T02:52:47;52.80;;;19.67;;
42832;SDS011;64089;51.478;5.692;2022-12-05T02:55:15;63.10;;;21.48;;
42832;SDS011;64089;51.478;5.692;2022-12-05T02:57:44;47.20;;;18.10;;
42832;SDS011;64089;51.478;5.692;2022-12-05T03:00:14;45.97;;;18.42;;
42832;SDS011;64089;51.478;5.692;2022-12-05T03:02:40;50.13;;;19.08;;
42832;SDS011;64089;51.478;5.692;2022-12-05T03:07:52;57.15;;;20.52;;
42832;SDS011;64089;51.478;5.692;2022-12-05T03:10:23;50.22;;;18.73;;
42832;SDS011;64089;51.478;5.692;2022-12-05T03:12:54;48.72;;;19.73;;
42832;SDS011;64089;51.478;5.692;2022-12-05T03:15:34;47.95;;;19.98;;
42832;SDS011;64089;51.478;5.692;2022-12-05T03:20:51;58.05;;;20.63;;
42832;SDS011;64089;51.478;5.692;2022-12-05T03:23:30;56.03;;;21.13;;
42832;SDS011;64089;51.478;5.692;2022-12-05T03:26:09;60.22;;;21.45;;
42832;SDS011;64089;51.478;5.692;2022-12-05T03:28:52;48.10;;;18.77;;
42832;SDS011;64089;51.478;5.692;2022-12-05T03:34:41;59.00;;;20.67;;
42832;SDS011;64089;51.478;5.692;2022-12-05T03:38:00;52.60;;;19.27;;
42832;SDS011;64089;51.478;5.692;2022-12-05T03:40:10;50.72;;;18.05;;
42832;SDS011;64089;51.478;5.692;2022-12-05T03:42:57;59.42;;;18.15;;
42832;SDS011;64089;51.478;5.692;2022-12-05T03:48:32;50.05;;;18.05;;
42832;SDS011;64089;51.478;5.692;2022-12-05T03:51:07;50.95;;;19.00;;
42832;SDS011;64089;51.478;5.692;2022-12-05T03:53:39;58.22;;;19.77;;
42832;SDS011;64089;51.478;5.692;2022-12-05T03:56:17;52.95;;;19.38;;
42832;SDS011;64089;51.478;5.692;2022-12-05T03:58:49;54.63;;;19.38;;
42832;SDS011;64089;51.478;5.692;2022-12-05T04:01:21;43.17;;;19.52;;
42832;SDS011;64089;51.478;5.692;2022-12-05T04:03:49;54.30;;;19.08;;
42832;SDS011;64089;51.478;5.692;2022-12-05T04:08:56;54.20;;;19.38;;
42832;SDS011;64089;51.478;5.692;2022-12-05T04:11:47;52.17;;;20.17;;
42832;SDS011;64089;51.478;5.692;2022-12-05T04:14:21;54.70;;;18.40;;
42832;SDS011;64089;51.478;5.692;2022-12-05T04:17:01;48.40;;;18.52;;
42832;SDS011;64089;51.478;5.692;2022-12-05T04:22:30;49.20;;;19.95;;
42832;SDS011;64089;51.478;5.692;2022-12-05T04:24:57;46.40;;;18.75;;
42832;SDS011;64089;51.478;5.692;2022-12-05T04:30:39;50.63;;;18.95;;
42832;SDS011;64089;51.478;5.692;2022-12-05T04:35:58;49.67;;;19.25;;
42832;SDS011;64089;51.478;5.692;2022-12-05T04:38:31;45.78;;;18.00;;
42832;SDS011;64089;51.478;5.692;2022-12-05T04:41:26;51.45;;;19.27;;
42832;SDS011;64089;51.478;5.692;2022-12-05T04:43:57;44.50;;;18.35;;
42832;SDS011;64089;51.478;5.692;2022-12-05T04:46:25;48.40;;;18.65;;
42832;SDS011;64089;51.478;5.692;2022-12-05T04:48:53;42.85;;;18.23;;
42832;SDS011;64089;51.478;5.692;2022-12-05T04:51:23;54.38;;;18.63;;
42832;SDS011;64089;51.478;5.692;2022-12-05T04:53:54;46.05;;;19.17;;
42832;SDS011;64089;51.478;5.692;2022-12-05T04:56:25;61.47;;;18.40;;
42832;SDS011;64089;51.478;5.692;2022-12-05T04:58:53;52.38;;;18.10;;
42832;SDS011;64089;51.478;5.692;2022-12-05T05:01:37;55.45;;;20.33;;
42832;SDS011;64089;51.478;5.692;2022-12-05T05:06:41;48.83;;;19.70;;
42832;SDS011;64089;51.478;5.692;2022-12-05T05:09:08;49.30;;;18.13;;
42832;SDS011;64089;51.478;5.692;2022-12-05T05:11:34;50.10;;;19.13;;
42832;SDS011;64089;51.478;5.692;2022-12-05T05:14:00;54.83;;;21.02;;
42832;SDS011;64089;51.478;5.692;2022-12-05T05:16:30;52.78;;;18.20;;
42832;SDS011;64089;51.478;5.692;2022-12-05T05:19:03;48.20;;;18.10;;
42832;SDS011;64089;51.478;5.692;2022-12-05T05:21:34;57.05;;;19.02;;
42832;SDS011;64089;51.478;5.692;2022-12-05T05:24:02;48.10;;;19.33;;
42832;SDS011;64089;51.478;5.692;2022-12-05T05:26:30;52.53;;;19.58;;
42832;SDS011;64089;51.478;5.692;2022-12-05T05:28:58;51.78;;;18.85;;
42832;SDS011;64089;51.478;5.692;2022-12-05T05:31:23;49.47;;;19.27;;
42832;SDS011;64089;51.478;5.692;2022-12-05T05:33:50;50.30;;;17.88;;
42832;SDS011;64089;51.478;5.692;2022-12-05T05:36:16;43.72;;;17.38;;
42832;SDS011;64089;51.478;5.692;2022-12-05T05:38:44;48.85;;;17.25;;
42832;SDS011;64089;51.478;5.692;2022-12-05T05:41:13;46.40;;;18.15;;
42832;SDS011;64089;51.478;5.692;2022-12-05T05:43:46;53.67;;;20.77;;
42832;SDS011;64089;51.478;5.692;2022-12-05T05:46:12;52.58;;;18.20;;
42832;SDS011;64089;51.478;5.692;2022-12-05T05:48:39;48.88;;;18.63;;
42832;SDS011;64089;51.478;5.692;2022-12-05T05:51:05;50.40;;;17.83;;
42832;SDS011;64089;51.478;5.692;2022-12-05T05:53:33;52.33;;;19.33;;
42832;SDS011;64089;51.478;5.692;2022-12-05T05:56:06;48.50;;;18.27;;
42832;SDS011;64089;51.478;5.692;2022-12-05T05:58:33;52.58;;;19.08;;
42832;SDS011;64089;51.478;5.692;2022-12-05T06:01:02;49.10;;;18.52;;
42832;SDS011;64089;51.478;5.692;2022-12-05T06:03:28;57.00;;;19.33;;
42832;SDS011;64089;51.478;5.692;2022-12-05T06:05:58;53.70;;;19.55;;
42832;SDS011;64089;51.478;5.692;2022-12-05T06:08:25;55.78;;;19.40;;
42832;SDS011;64089;51.478;5.692;2022-12-05T06:10:56;69.35;;;19.40;;
42832;SDS011;64089;51.478;5.692;2022-12-05T06:13:22;51.47;;;19.17;;
42832;SDS011;64089;51.478;5.692;2022-12-05T06:15:48;52.28;;;19.48;;
42832;SDS011;64089;51.478;5.692;2022-12-05T06:18:13;49.55;;;19.50;;
42832;SDS011;64089;51.478;5.692;2022-12-05T06:20:39;56.20;;;18.90;;
42832;SDS011;64089;51.478;5.692;2022-12-05T06:23:05;42.53;;;16.85;;
42832;SDS011;64089;51.478;5.692;2022-12-05T06:25:30;49.13;;;18.38;;
42832;SDS011;64089;51.478;5.692;2022-12-05T06:27:56;46.47;;;18.23;;
42832;SDS011;64089;51.478;5.692;2022-12-05T06:30:21;41.95;;;17.85;;
42832;SDS011;64089;51.478;5.692;2022-12-05T06:32:47;49.65;;;18.88;;
42832;SDS011;64089;51.478;5.692;2022-12-05T06:35:13;52.03;;;18.45;;
42832;SDS011;64089;51.478;5.692;2022-12-05T06:37:42;53.35;;;19.75;;
42832;SDS011;64089;51.478;5.692;2022-12-05T06:40:08;54.83;;;19.58;;
42832;SDS011;64089;51.478;5.692;2022-12-05T06:42:35;36.55;;;16.63;;
42832;SDS011;64089;51.478;5.692;2022-12-05T06:45:01;36.97;;;16.48;;
42832;SDS011;64089;51.478;5.692;2022-12-05T06:47:26;43.90;;;18.55;;
42832;SDS011;64089;51.478;5.692;2022-12-05T06:49:52;44.60;;;17.42;;
42832;SDS011;64089;51.478;5.692;2022-12-05T06:52:18;43.60;;;17.33;;
42832;SDS011;64089;51.478;5.692;2022-12-05T06:54:43;41.40;;;17.42;;
42832;SDS011;64089;51.478;5.692;2022-12-05T06:57:10;49.25;;;16.45;;
42832;SDS011;64089;51.478;5.692;2022-12-05T06:59:36;45.85;;;17.77;;
42832;SDS011;64089;51.478;5.692;2022-12-05T07:02:02;43.53;;;17.02;;
42832;SDS011;64089;51.478;5.692;2022-12-05T07:04:32;46.40;;;18.73;;
42832;SDS011;64089;51.478;5.692;2022-12-05T07:06:57;43.97;;;17.48;;
42832;SDS011;64089;51.478;5.692;2022-12-05T07:09:24;45.25;;;16.48;;
42832;SDS011;64089;51.478;5.692;2022-12-05T07:12:09;45.25;;;16.67;;
42832;SDS011;64089;51.478;5.692;2022-12-05T07:14:34;55.22;;;17.27;;
42832;SDS011;64089;51.478;5.692;2022-12-05T07:17:00;44.10;;;15.77;;
42832;SDS011;64089;51.478;5.692;2022-12-05T07:19:25;50.85;;;16.83;;
42832;SDS011;64089;51.478;5.692;2022-12-05T07:21:51;43.30;;;17.05;;
42832;SDS011;64089;51.478;5.692;2022-12-05T07:24:16;40.20;;;15.00;;
42832;SDS011;64089;51.478;5.692;2022-12-05T07:26:45;40.10;;;15.60;;
42832;SDS011;64089;51.478;5.692;2022-12-05T07:29:10;45.75;;;16.30;;
42832;SDS011;64089;51.478;5.692;2022-12-05T07:31:36;41.00;;;17.20;;
42832;SDS011;64089;51.478;5.692;2022-12-05T07:34:02;41.97;;;16.63;;
42832;SDS011;64089;51.478;5.692;2022-12-05T07:36:27;39.95;;;15.85;;
42832;SDS011;64089;51.478;5.692;2022-12-05T07:38:54;35.55;;;15.95;;
42832;SDS011;64089;51.478;5.692;2022-12-05T07:41:22;40.20;;;16.38;;
42832;SDS011;64089;51.478;5.692;2022-12-05T07:43:52;43.08;;;15.38;;
42832;SDS011;64089;51.478;5.692;2022-12-05T07:46:20;37.83;;;15.75;;
42832;SDS011;64089;51.478;5.692;2022-12-05T07:48:46;33.13;;;15.10;;
42832;SDS011;64089;51.478;5.692;2022-12-05T07:51:12;47.08;;;19.08;;
42832;SDS011;64089;51.478;5.692;2022-12-05T07:53:38;36.10;;;15.45;;
42832;SDS011;64089;51.478;5.692;2022-12-05T07:56:06;43.40;;;15.32;;
42832;SDS011;64089;51.478;5.692;2022-12-05T07:58:33;42.53;;;15.48;;
42832;SDS011;64089;51.478;5.692;2022-12-05T08:01:06;35.95;;;14.13;;
42832;SDS011;64089;51.478;5.692;2022-12-05T08:03:32;38.15;;;16.30;;
42832;SDS011;64089;51.478;5.692;2022-12-05T08:06:03;45.42;;;16.60;;
42832;SDS011;64089;51.478;5.692;2022-12-05T08:08:30;38.97;;;14.50;;
42832;SDS011;64089;51.478;5.692;2022-12-05T08:10:55;42.47;;;15.55;;
42832;SDS011;64089;51.478;5.692;2022-12-05T08:13:27;41.78;;;16.58;;
42832;SDS011;64089;51.478;5.692;2022-12-05T08:15:53;39.17;;;16.48;;
42832;SDS011;64089;51.478;5.692;2022-12-05T08:18:19;47.17;;;16.33;;
42832;SDS011;64089;51.478;5.692;2022-12-05T08:20:44;44.47;;;18.33;;
42832;SDS011;64089;51.478;5.692;2022-12-05T08:23:10;42.75;;;17.42;;
42832;SDS011;64089;51.478;5.692;2022-12-05T08:25:35;42.45;;;15.15;;
42832;SDS011;64089;51.478;5.692;2022-12-05T08:28:01;40.33;;;14.98;;
42832;SDS011;64089;51.478;5.692;2022-12-05T08:30:26;40.63;;;15.63;;
42832;SDS011;64089;51.478;5.692;2022-12-05T08:32:52;137.70;;;50.45;;
42832;SDS011;64089;51.478;5.692;2022-12-05T08:35:18;130.77;;;48.97;;
42832;SDS011;64089;51.478;5.692;2022-12-05T08:37:43;139.98;;;53.22;;
42832;SDS011;64089;51.478;5.692;2022-12-05T08:40:09;92.13;;;34.80;;
42832;SDS011;64089;51.478;5.692;2022-12-05T08:42:35;53.25;;;19.40;;
42832;SDS011;64089;51.478;5.692;2022-12-05T08:45:00;43.50;;;17.85;;
42832;SDS011;64089;51.478;5.692;2022-12-05T08:47:27;36.80;;;15.18;;
42832;SDS011;64089;51.478;5.692;2022-12-05T08:49:53;36.55;;;15.25;;
42832;SDS011;64089;51.478;5.692;2022-12-05T08:52:18;33.28;;;14.70;;
42832;SDS011;64089;51.478;5.692;2022-12-05T08:54:45;38.20;;;16.20;;
42832;SDS011;64089;51.478;5.692;2022-12-05T08:57:11;37.08;;;13.10;;
42832;SDS011;64089;51.478;5.692;2022-12-05T08:59:36;43.05;;;16.00;;
42832;SDS011;64089;51.478;5.692;2022-12-05T09:02:02;38.15;;;14.40;;
42832;SDS011;64089;51.478;5.692;2022-12-05T09:04:28;34.17;;;14.20;;
42832;SDS011;64089;51.478;5.692;2022-12-05T09:06:53;31.15;;;14.10;;
42832;SDS011;64089;51.478;5.692;2022-12-05T09:09:19;38.00;;;13.90;;
42832;SDS011;64089;51.478;5.692;2022-12-05T09:11:44;29.25;;;14.02;;
42832;SDS011;64089;51.478;5.692;2022-12-05T09:14:10;32.60;;;13.80;;
42832;SDS011;64089;51.478;5.692;2022-12-05T09:16:37;31.95;;;12.35;;
42832;SDS011;64089;51.478;5.692;2022-12-05T09:19:03;31.42;;;13.27;;
42832;SDS011;64089;51.478;5.692;2022-12-05T09:21:30;33.33;;;13.60;;
42832;SDS011;64089;51.478;5.692;2022-12-05T09:23:59;38.80;;;14.70;;
42832;SDS011;64089;51.478;5.692;2022-12-05T09:26:25;35.28;;;13.70;;
42832;SDS011;64089;51.478;5.692;2022-12-05T09:28:52;43.67;;;15.40;;
42832;SDS011;64089;51.478;5.692;2022-12-05T09:31:19;34.58;;;13.35;;
42832;SDS011;64089;51.478;5.692;2022-12-05T09:33:47;35.22;;;13.65;;
42832;SDS011;64089;51.478;5.692;2022-12-05T09:36:15;36.72;;;13.90;;
42832;SDS011;64089;51.478;5.692;2022-12-05T09:38:43;33.55;;;13.75;;
42832;SDS011;64089;51.478;5.692;2022-12-05T09:44:38;41.78;;;15.45;;
42832;SDS011;64089;51.478;5.692;2022-12-05T09:49:45;130.15;;;48.00;;
42832;SDS011;64089;51.478;5.692;2022-12-05T09:52:26;51.72;;;21.85;;
42832;SDS011;64089;51.478;5.692;2022-12-05T09:55:10;30.80;;;14.50;;
42832;SDS011;64089;51.478;5.692;2022-12-05T09:57:43;31.63;;;14.20;;
42832;SDS011;64089;51.478;5.692;2022-12-05T10:00:14;30.27;;;11.60;;
42832;SDS011;64089;51.478;5.692;2022-12-05T10:02:52;28.92;;;12.88;;
42832;SDS011;64089;51.478;5.692;2022-12-05T10:05:21;26.15;;;12.00;;
42832;SDS011;64089;51.478;5.692;2022-12-05T10:10:47;30.17;;;12.98;;
42832;SDS011;64089;51.478;5.692;2022-12-05T10:19:05;21.20;;;10.85;;
42832;SDS011;64089;51.478;5.692;2022-12-05T10:21:51;21.65;;;9.80;;
42832;SDS011;64089;51.478;5.692;2022-12-05T10:24:30;25.50;;;10.50;;
42832;SDS011;64089;51.478;5.692;2022-12-05T10:27:05;21.25;;;9.88;;
42832;SDS011;64089;51.478;5.692;2022-12-05T10:29:34;25.50;;;10.20;;
42832;SDS011;64089;51.478;5.692;2022-12-05T10:34:40;21.02;;;10.02;;
42832;SDS011;64089;51.478;5.692;2022-12-05T10:39:41;22.67;;;10.85;;
42832;SDS011;64089;51.478;5.692;2022-12-05T10:42:41;25.33;;;11.02;;
42832;SDS011;64089;51.478;5.692;2022-12-05T10:47:33;16.50;;;8.73;;
42832;SDS011;64089;51.478;5.692;2022-12-05T10:50:04;20.05;;;10.02;;
42832;SDS011;64089;51.478;5.692;2022-12-05T10:52:37;21.70;;;9.57;;
42832;SDS011;64089;51.478;5.692;2022-12-05T10:55:04;18.95;;;9.82;;
42832;SDS011;64089;51.478;5.692;2022-12-05T10:57:32;18.58;;;8.98;;
42832;SDS011;64089;51.478;5.692;2022-12-05T11:00:07;18.33;;;8.63;;
42832;SDS011;64089;51.478;5.692;2022-12-05T11:02:35;16.95;;;9.15;;
42832;SDS011;64089;51.478;5.692;2022-12-05T11:05:02;19.10;;;8.38;;
42832;SDS011;64089;51.478;5.692;2022-12-05T11:10:04;14.50;;;7.63;;
42832;SDS011;64089;51.478;5.692;2022-12-05T11:12:47;16.48;;;7.55;;
42832;SDS011;64089;51.478;5.692;2022-12-05T11:18:16;17.13;;;8.32;;
42832;SDS011;64089;51.478;5.692;2022-12-05T11:23:39;17.33;;;7.65;;
42832;SDS011;64089;51.478;5.692;2022-12-05T11:26:13;16.65;;;7.25;;
42832;SDS011;64089;51.478;5.692;2022-12-05T11:28:56;14.82;;;7.57;;
42832;SDS011;64089;51.478;5.692;2022-12-05T11:31:24;15.73;;;9.27;;
42832;SDS011;64089;51.478;5.692;2022-12-05T11:34:52;14.65;;;7.90;;
42832;SDS011;64089;51.478;5.692;2022-12-05T11:37:00;17.55;;;7.75;;
42832;SDS011;64089;51.478;5.692;2022-12-05T11:39:31;16.90;;;7.93;;
42832;SDS011;64089;51.478;5.692;2022-12-05T11:47:53;13.05;;;6.90;;
42832;SDS011;64089;51.478;5.692;2022-12-05T11:58:37;17.55;;;8.18;;
42832;SDS011;64089;51.478;5.692;2022-12-05T12:04:27;14.75;;;7.75;;
42832;SDS011;64089;51.478;5.692;2022-12-05T12:13:00;11.27;;;6.22;;
42832;SDS011;64089;51.478;5.692;2022-12-05T12:18:47;12.82;;;6.75;;
42832;SDS011;64089;51.478;5.692;2022-12-05T12:24:32;13.90;;;7.10;;
42832;SDS011;64089;51.478;5.692;2022-12-05T12:27:26;11.57;;;6.53;;
42832;SDS011;64089;51.478;5.692;2022-12-05T12:32:47;13.40;;;6.65;;
42832;SDS011;64089;51.478;5.692;2022-12-05T12:40:53;12.93;;;7.18;;
42832;SDS011;64089;51.478;5.692;2022-12-05T12:43:34;14.27;;;7.18;;
42832;SDS011;64089;51.478;5.692;2022-12-05T12:48:47;10.75;;;6.70;;
42832;SDS011;64089;51.478;5.692;2022-12-05T12:51:27;14.52;;;7.30;;
42832;SDS011;64089;51.478;5.692;2022-12-05T12:59:42;11.38;;;6.55;;
42832;SDS011;64089;51.478;5.692;2022-12-05T13:02:21;11.05;;;6.25;;
42832;SDS011;64089;51.478;5.692;2022-12-05T13:07:33;10.98;;;5.80;;
42832;SDS011;64089;51.478;5.692;2022-12-05T13:12:52;10.75;;;6.18;;
42832;SDS011;64089;51.478;5.692;2022-12-05T13:15:22;13.18;;;6.43;;
42832;SDS011;64089;51.478;5.692;2022-12-05T13:18:05;9.13;;;5.00;;
42832;SDS011;64089;51.478;5.692;2022-12-05T13:20:35;11.15;;;6.20;;
42832;SDS011;64089;51.478;5.692;2022-12-05T13:23:01;10.13;;;5.32;;
42832;SDS011;64089;51.478;5.692;2022-12-05T13:25:28;9.07;;;5.18;;
42832;SDS011;64089;51.478;5.692;2022-12-05T13:27:57;11.93;;;6.40;;
42832;SDS011;64089;51.478;5.692;2022-12-05T13:30:25;10.57;;;5.93;;
42832;SDS011;64089;51.478;5.692;2022-12-05T13:32:58;11.40;;;5.50;;
42832;SDS011;64089;51.478;5.692;2022-12-05T13:35:31;21.30;;;5.80;;
42832;SDS011;64089;51.478;5.692;2022-12-05T13:38:27;9.75;;;5.30;;
42832;SDS011;64089;51.478;5.692;2022-12-05T13:41:13;11.50;;;6.13;;
42832;SDS011;64089;51.478;5.692;2022-12-05T13:43:58;11.10;;;6.25;;
42832;SDS011;64089;51.478;5.692;2022-12-05T13:46:28;10.10;;;5.72;;
42832;SDS011;64089;51.478;5.692;2022-12-05T13:49:07;11.90;;;6.18;;
42832;SDS011;64089;51.478;5.692;2022-12-05T13:51:41;10.65;;;5.97;;
42832;SDS011;64089;51.478;5.692;2022-12-05T13:54:15;15.57;;;6.82;;
42832;SDS011;64089;51.478;5.692;2022-12-05T13:59:12;11.25;;;6.05;;
42832;SDS011;64089;51.478;5.692;2022-12-05T14:07:42;12.10;;;6.13;;
42832;SDS011;64089;51.478;5.692;2022-12-05T14:10:13;12.38;;;6.82;;
42832;SDS011;64089;51.478;5.692;2022-12-05T14:17:56;17.83;;;6.55;;
42832;SDS011;64089;51.478;5.692;2022-12-05T14:20:46;14.82;;;7.03;;
42832;SDS011;64089;51.478;5.692;2022-12-05T14:24:06;16.00;;;7.13;;
42832;SDS011;64089;51.478;5.692;2022-12-05T14:29:06;16.63;;;7.38;;
42832;SDS011;64089;51.478;5.692;2022-12-05T14:37:00;18.25;;;8.57;;
42832;SDS011;64089;51.478;5.692;2022-12-05T14:43:03;16.27;;;8.52;;
42832;SDS011;64089;51.478;5.692;2022-12-05T14:45:22;89.28;;;34.85;;
42832;SDS011;64089;51.478;5.692;2022-12-05T14:47:53;66.50;;;29.35;;
42832;SDS011;64089;51.478;5.692;2022-12-05T14:55:45;20.13;;;9.60;;
42832;SDS011;64089;51.478;5.692;2022-12-05T14:58:26;16.42;;;9.27;;
42832;SDS011;64089;51.478;5.692;2022-12-05T15:01:22;18.30;;;8.93;;
42832;SDS011;64089;51.478;5.692;2022-12-05T15:06:48;20.27;;;9.90;;
42832;SDS011;64089;51.478;5.692;2022-12-05T15:09:29;15.52;;;7.63;;
42832;SDS011;64089;51.478;5.692;2022-12-05T15:11:57;14.43;;;7.70;;
42832;SDS011;64089;51.478;5.692;2022-12-05T15:14:24;13.52;;;7.78;;
42832;SDS011;64089;51.478;5.692;2022-12-05T15:16:54;16.02;;;7.95;;
42832;SDS011;64089;51.478;5.692;2022-12-05T15:19:29;14.43;;;8.10;;
42832;SDS011;64089;51.478;5.692;2022-12-05T15:22:16;17.02;;;7.55;;
42832;SDS011;64089;51.478;5.692;2022-12-05T15:24:45;13.57;;;7.57;;
42832;SDS011;64089;51.478;5.692;2022-12-05T15:27:10;11.35;;;7.05;;
42832;SDS011;64089;51.478;5.692;2022-12-05T15:29:37;13.50;;;6.80;;
42832;SDS011;64089;51.478;5.692;2022-12-05T15:32:12;11.68;;;6.63;;
42832;SDS011;64089;51.478;5.692;2022-12-05T15:34:50;14.05;;;6.90;;
42832;SDS011;64089;51.478;5.692;2022-12-05T15:40:00;15.00;;;7.50;;
42832;SDS011;64089;51.478;5.692;2022-12-05T15:42:28;15.40;;;6.78;;
42832;SDS011;64089;51.478;5.692;2022-12-05T15:47:46;14.48;;;7.43;;
42832;SDS011;64089;51.478;5.692;2022-12-05T15:50:20;18.52;;;9.15;;
42832;SDS011;64089;51.478;5.692;2022-12-05T15:58:23;22.73;;;9.55;;
42832;SDS011;64089;51.478;5.692;2022-12-05T16:01:06;14.90;;;8.77;;
42832;SDS011;64089;51.478;5.692;2022-12-05T16:09:07;15.07;;;8.10;;
42832;SDS011;64089;51.478;5.692;2022-12-05T16:11:37;14.63;;;8.27;;
42832;SDS011;64089;51.478;5.692;2022-12-05T16:14:04;14.55;;;8.27;;
42832;SDS011;64089;51.478;5.692;2022-12-05T16:16:32;13.15;;;7.43;;
42832;SDS011;64089;51.478;5.692;2022-12-05T16:19:04;14.45;;;8.45;;
42832;SDS011;64089;51.478;5.692;2022-12-05T16:21:41;19.90;;;8.75;;
42832;SDS011;64089;51.478;5.692;2022-12-05T16:24:14;13.40;;;7.20;;
42832;SDS011;64089;51.478;5.692;2022-12-05T16:26:50;15.90;;;8.07;;
42832;SDS011;64089;51.478;5.692;2022-12-05T16:29:31;17.52;;;8.70;;
42832;SDS011;64089;51.478;5.692;2022-12-05T16:32:02;20.20;;;9.43;;
42832;SDS011;64089;51.478;5.692;2022-12-05T16:34:31;29.42;;;12.38;;
42832;SDS011;64089;51.478;5.692;2022-12-05T16:36:58;19.40;;;9.55;;
42832;SDS011;64089;51.478;5.692;2022-12-05T16:39:24;21.80;;;9.05;;
42832;SDS011;64089;51.478;5.692;2022-12-05T16:41:50;18.85;;;9.10;;
42832;SDS011;64089;51.478;5.692;2022-12-05T16:46:51;17.85;;;7.93;;
42832;SDS011;64089;51.478;5.692;2022-12-05T16:52:00;13.30;;;7.57;;
42832;SDS011;64089;51.478;5.692;2022-12-05T16:54:32;14.95;;;7.18;;
42832;SDS011;64089;51.478;5.692;2022-12-05T16:56:58;16.73;;;8.48;;
42832;SDS011;64089;51.478;5.692;2022-12-05T17:01:59;12.82;;;7.25;;
42832;SDS011;64089;51.478;5.692;2022-12-05T17:04:26;15.20;;;7.68;;
42832;SDS011;64089;51.478;5.692;2022-12-05T17:06:52;17.33;;;8.60;;
42832;SDS011;64089;51.478;5.692;2022-12-05T17:09:18;16.27;;;7.57;;
42832;SDS011;64089;51.478;5.692;2022-12-05T17:11:44;19.35;;;8.45;;
42832;SDS011;64089;51.478;5.692;2022-12-05T17:14:12;15.90;;;7.43;;
42832;SDS011;64089;51.478;5.692;2022-12-05T17:16:39;14.57;;;7.03;;
42832;SDS011;64089;51.478;5.692;2022-12-05T17:19:05;12.13;;;7.18;;
42832;SDS011;64089;51.478;5.692;2022-12-05T17:21:31;17.15;;;7.70;;
42832;SDS011;64089;51.478;5.692;2022-12-05T17:23:58;20.85;;;7.47;;
42832;SDS011;64089;51.478;5.692;2022-12-05T17:26:24;15.02;;;8.32;;
42832;SDS011;64089;51.478;5.692;2022-12-05T17:28:50;15.68;;;7.90;;
42832;SDS011;64089;51.478;5.692;2022-12-05T17:31:20;14.57;;;8.45;;
42832;SDS011;64089;51.478;5.692;2022-12-05T17:33:47;12.20;;;7.60;;
42832;SDS011;64089;51.478;5.692;2022-12-05T17:36:14;16.67;;;8.00;;
42832;SDS011;64089;51.478;5.692;2022-12-05T17:38:40;14.90;;;7.38;;
42832;SDS011;64089;51.478;5.692;2022-12-05T17:41:06;14.13;;;7.43;;
42832;SDS011;64089;51.478;5.692;2022-12-05T17:43:32;13.60;;;8.25;;
42832;SDS011;64089;51.478;5.692;2022-12-05T17:45:58;14.82;;;7.60;;
42832;SDS011;64089;51.478;5.692;2022-12-05T17:48:24;13.68;;;7.60;;
42832;SDS011;64089;51.478;5.692;2022-12-05T17:50:50;13.13;;;7.32;;
42832;SDS011;64089;51.478;5.692;2022-12-05T17:53:20;14.88;;;7.97;;
42832;SDS011;64089;51.478;5.692;2022-12-05T17:55:46;17.45;;;7.95;;